Flight Track Log - Related Links

Times and Time Zones

All times are in EDT time to prevent confusion due to time zone crossing. See the EGF2827 flight status page for this flight to view local times or setup timezone preferences in your user account.


Time Position Orientation Groundspeed Altitude Reporting Facility
EDT Latitude Longitude Course Direction KTS MPH feet Rate Location/Type
Sat 07:07:07 AM 43.1144 -76.1778 286° West 165 190 2,300  Level Boston Center
Sat 07:08:00 AM 43.1679 -76.3037 295° West  Level FlightAware Approximate
Sat 07:09:00 AM 43.1833 -76.4131 270° West  Level FlightAware Approximate
Sat 07:09:03 AM 43.1667 -76.3017 300° West 211 243 6,900  Level Cleveland Center
Sat 07:10:00 AM 43.2022 -76.5152 281° West  Level FlightAware Approximate
Sat 07:10:03 AM 43.1903 -76.3742 294° West 211 243 9,300  Level Cleveland Center
Sat 07:11:00 AM 43.2189 -76.6269 286° West  Level FlightAware Approximate
Sat 07:11:02 AM 43.2036 -76.4531 283° West 211 243 11,100  Level Cleveland Center
Sat 07:12:00 AM 43.2424 -76.7363 286° West  Level FlightAware Approximate
Sat 07:12:03 AM 43.2169 -76.5406 282° West 223 257 12,900  Level Cleveland Center
Sat 07:13:02 AM 43.2328 -76.6336 283° West 239 275 14,600 1,700 Climbing Cleveland Center
Sat 07:14:03 AM 43.2483 -76.7267 283° West 250 288 16,300 1,700 Climbing Cleveland Center
Sat 07:15:02 AM 43.2639 -76.8197 283° West 255 293 18,000 1,600 Climbing Cleveland Center
Sat 07:16:03 AM 43.2631 -76.9197 269° West 255 293 19,500 1,488 Climbing Cleveland Center
Sat 07:17:03 AM 43.2619 -77.0222 269° West 262 302 21,000 1,550 Climbing Cleveland Center
Sat 07:18:03 AM 43.2586 -77.1167 267° West 274 315 22,600 1,613 Climbing Cleveland Center
Sat 07:19:02 AM 43.2556 -77.2222 268° West 274 315 24,200 1,600 Climbing Cleveland Center
Sat 07:20:03 AM 43.2542 -77.3250 269° West 274 315 25,800 1,537 Climbing Cleveland Center
Sat 07:21:03 AM 43.2531 -77.4278 269° West 274 315 27,300 1,563 Climbing Cleveland Center
Sat 07:22:02 AM 43.2536 -77.5247 270° West 269 310 28,900 1,450 Climbing Cleveland Center
Sat 07:23:03 AM 43.2497 -77.6189 267° West 264 304 30,200 1,150 Climbing Cleveland Center
Sat 07:24:02 AM 43.2500 -77.7186 270° West 259 298 31,200 1,000 Climbing Cleveland Center
Sat 07:25:03 AM 43.2464 -77.8186 267° West 259 298 32,200 893 Climbing Cleveland Center
Sat 07:26:03 AM 43.2444 -77.9214 269° West 259 298 33,000 400 Climbing Cleveland Center
Sat 07:27:03 AM 43.2428 -78.0239 269° West 270 311 33,000  Level Cleveland Center
Sat 07:28:03 AM 43.2386 -78.1297 267° West 275 316 33,000  Level Cleveland Center
Sat 07:29:02 AM 43.2367 -78.2381 269° West 280 322 33,000  Level Cleveland Center
Sat 07:30:03 AM 43.2347 -78.3436 269° West 280 322 33,000  Level Cleveland Center
Sat 07:31:03 AM 43.2347 -78.4489 270° West 280 322 33,000  Level Cleveland Center
Sat 07:32:02 AM 43.2489 -78.5539 281° West 275 316 33,000 550 Level Cleveland Center
Sat 07:33:03 AM 43.2653 -78.6589 282° West 280 322 34,100 1,091 Climbing Cleveland Center
Sat 07:34:03 AM 43.2794 -78.7611 281° West 280 322 35,200 900 Climbing Cleveland Center
Sat 07:35:03 AM 43.2831 -78.8608 273° West 275 316 35,900 329 Climbing Cleveland Center
Sat 07:36:29 AM 43.2667 -79.0167 262° West 290 334 36,000 41 Climbing Toronto Center
Sat 07:37:29 AM 43.2667 -79.1333 270° West 310 357 36,000  Level Toronto Center
Sat 07:38:29 AM 43.2500 -79.2500 259° West 320 368 36,000  Level Toronto Center
Sat 07:39:29 AM 43.2500 -79.3833 270° West 330 380 36,000  Level Toronto Center
Sat 07:40:29 AM 43.2333 -79.5000 259° West 340 391 36,000  Level Toronto Center
Sat 07:41:29 AM 43.2333 -79.6333 270° West 340 391 36,000  Level Toronto Center
Sat 07:42:29 AM 43.2333 -79.7667 270° West 350 403 36,000  Level Toronto Center
Sat 07:43:29 AM 43.2167 -79.9000 260° West 350 403 36,000  Level Toronto Center
Sat 07:44:29 AM 43.2167 -80.0500 270° West 350 403 36,000  Level Toronto Center
Sat 07:45:29 AM 43.2000 -80.1833 260° West 360 414 36,000  Level Toronto Center
Sat 07:46:29 AM 43.2000 -80.3167 270° West 360 414 36,000  Level Toronto Center
Sat 07:47:29 AM 43.2000 -80.4500 270° West 360 414 36,000  Level Toronto Center
Sat 07:48:29 AM 43.1833 -80.6000 261° West 360 414 36,000  Level Toronto Center
Sat 07:49:29 AM 43.1833 -80.7333 270° West 360 414 36,000  Level Toronto Center
Sat 07:50:29 AM 43.1500 -80.8667 251° West 360 414 36,000  Level Toronto Center
Sat 07:51:29 AM 43.1500 -81.0000 270° West 360 414 36,000  Level Toronto Center
Sat 07:52:29 AM 43.1500 -81.1333 270° West 360 414 36,000  Level Toronto Center
Sat 07:53:29 AM 43.1333 -81.2833 261° West 360 414 36,000  Level Toronto Center
Sat 07:54:29 AM 43.1333 -81.4000 270° West 360 414 36,000  Level Toronto Center
Sat 07:55:29 AM 43.1167 -81.5500 261° West 360 414 36,000  Level Toronto Center
Sat 07:56:29 AM 43.1167 -81.6667 270° West 360 414 36,000  Level Toronto Center
Sat 07:57:29 AM 43.1167 -81.8333 270° West 360 414 36,000  Level Toronto Center
Sat 07:58:29 AM 43.0833 -81.9333 245° Southwest 360 414 36,000  Level Toronto Center
Sat 07:59:29 AM 43.0833 -82.1000 270° West 360 414 36,000 -200 Level Toronto Center
Sat 08:00:29 AM 43.0667 -82.2333 260° West 360 414 35,600 -700 Descending Toronto Center
Sat 08:01:29 AM 43.0667 -82.3667 270° West 370 426 34,600 -950 Descending Toronto Center
Sat 08:02:29 AM 43.0500 -82.5000 260° West 370 426 33,700 -950 Descending Toronto Center
Sat 08:03:29 AM 43.0333 -82.6500 261° West 380 437 32,700 -1,000 Descending Toronto Center
Sat 08:04:29 AM 43.0333 -82.8000 270° West 380 437 31,700 -1,000 Descending Toronto Center
Sat 08:05:29 AM 43.0167 -82.9333 260° West 380 437 30,700 -850 Descending Toronto Center
Sat 08:06:29 AM 43.0167 -83.0833 270° West 380 437 30,000 -350 Descending Toronto Center
Sat 08:07:29 AM 42.9833 -83.2167 251° West 380 437 30,000  Level Toronto Center
Sat 08:08:29 AM 42.9833 -83.3667 270° West 380 437 30,000  Level Toronto Center
Sat 08:09:29 AM 42.9833 -83.5000 270° West 390 449 30,000  Level Toronto Center
Sat 08:10:29 AM 42.9667 -83.6500 261° West 390 449 30,000  Level Toronto Center
Sat 08:11:29 AM 42.9500 -83.8000 261° West 390 449 30,000  Level Toronto Center
Sat 08:12:14 AM 42.9503 -83.9119 270° West 390 449 30,000  Level Chicago Center
Sat 08:12:50 AM 42.9433 -83.9953 264° West 385 443 30,000  Level Cleveland Center
Sat 08:13:50 AM 42.9261 -84.1447 261° West 390 449 30,000  Level Cleveland Center
Sat 08:15:18 AM 42.9067 -84.3494 263° West 389 448 30,000  Level Chicago Center
Sat 08:16:20 AM 42.8931 -84.4950 263° West 388 447 30,000  Level Chicago Center
Sat 08:17:21 AM 42.8775 -84.6392 262° West 386 444 30,000  Level Chicago Center
Sat 08:18:23 AM 42.8594 -84.8131 262° West 387 445 30,000  Level Chicago Center
Sat 08:19:24 AM 42.8447 -84.9572 262° West 385 443 30,000  Level Chicago Center
Sat 08:20:26 AM 42.8297 -85.1017 262° West 386 444 30,000  Level Chicago Center
Sat 08:21:28 AM 42.8139 -85.2464 262° West 386 444 30,000  Level Chicago Center
Sat 08:22:29 AM 42.7986 -85.3908 262° West 385 443 30,000  Level Chicago Center
Sat 08:23:31 AM 42.7811 -85.5347 261° West 384 442 30,000 -288 Level Chicago Center
Sat 08:24:34 AM 42.7542 -85.6772 256° West 387 445 29,400 -1,452 Descending Chicago Center
Sat 08:25:35 AM 42.7281 -85.8214 256° West 390 449 27,000 -2,410 Descending Chicago Center
Sat 08:26:36 AM 42.7028 -85.9650 257° West 388 447 24,500 -2,634 Descending Chicago Center
Sat 08:27:38 AM 42.6700 -86.1392 256° West 394 453 21,600 -2,274 Descending Chicago Center
Sat 08:28:40 AM 42.6439 -86.2831 256° West 392 451 19,800 -1,742 Descending Chicago Center
Sat 08:29:42 AM 42.6158 -86.4194 254° West 378 435 18,000 -1,707 Descending Chicago Center
Sat 08:30:43 AM 42.5919 -86.5558 257° West 373 429 16,300 -1,707 Descending Chicago Center
Sat 08:31:45 AM 42.5675 -86.6906 256° West 369 425 14,500 -1,742 Descending Chicago Center
Sat 08:32:47 AM 42.5361 -86.8189 252° West 363 418 12,700 -1,694 Descending Chicago Center
Sat 08:33:49 AM 42.5011 -86.9444 249° West 358 412 11,000 -1,317 Descending Chicago Center
Sat 08:34:50 AM 42.4597 -87.0933 249° West 353 406 10,000 -488 Descending Chicago Center
Sat 08:35:52 AM 42.4278 -87.2094 250° West 335 386 10,000 -435 Level Chicago Center
Sat 08:36:54 AM 42.3914 -87.2939 240° Southwest 281 323 9,100 -581 Descending Chicago Center
Sat 08:37:56 AM 42.3106 -87.3356 201° Southwest 291 335 8,800 -871 Descending Chicago Center
Sat 08:38:58 AM 42.2397 -87.3739 202° Southwest 278 320 7,300 -878 Descending Chicago Center
Sat 08:39:59 AM 42.1708 -87.4164 205° Southwest 275 316 7,000 -488 Descending Chicago Center
Sat 08:41:01 AM 42.1028 -87.4575 204° Southwest 271 312 6,300 -532 Descending Chicago Center
Sat 08:42:03 AM 42.0375 -87.5017 207° Southwest 266 306 5,900 -581 Descending Chicago Center
Sat 08:43:05 AM 41.9917 -87.5947 236° Southwest 262 302 5,100 -968 Descending Chicago Center
Sat 08:44:07 AM 41.9814 -87.6856 261° West 251 289 3,900 -1,268 Descending Chicago Center
Sat 08:45:08 AM 41.9836 -87.7669 272° West 235 270 2,500 -1,122 Descending Chicago Center
Sat 08:46:10 AM 41.9842 -87.8350 271° West 210 242 1,600 -629 Descending Chicago Center
Sat 08:47:12 AM 41.9825 -87.8922 268° West 194 223 1,200 -387 Descending Chicago Center

Login

Don't have an account? Register now (free) for customized features, flight alerts, and more!